Elwyn Terrace, Pennsylvania
Current Conditions -  °F | °C
As of 4:53 PM on Thursday 23 Oct 2014 (Local Time) from KLNS Reporting Station
Overcast Overcast  
Wind Chill: 14°   Ceiling: 3300
Heat Index: 14°   Visibility: 10mi
Dew Point:   Wind: 12mph
Humidity: 62%   Direction: 340°NNW
Pressure: 29.83"   Gusts: NA
Location:  40.1777°N, 76.4291°W
Report Text: KLNS 232053Z 34010KT 10SM OVC033 14/07 A2983 RMK AO2 SLP099 T01390067 55000
Loading
Personal Weather Stations






























Interactive Weather Map
Tropical Storm Tracking
New forecast layout! Learn more

10-Day Weather Forecast

Advertisements
Track Severe Weather on mobile